createdAt,value
2019-06-01T00:01:30.425Z,14.70
2019-06-01T00:04:08.051Z,14.03
2019-06-01T00:06:46.954Z,15.55
2019-06-01T00:09:24.440Z,16.55
2019-06-01T00:12:04.265Z,15.40
2019-06-01T00:14:41.851Z,14.13
2019-06-01T00:17:19.149Z,14.00
2019-06-01T00:19:56.479Z,14.90
2019-06-01T00:22:35.518Z,13.45
2019-06-01T00:25:12.905Z,14.80
2019-06-01T00:27:51.334Z,14.65
2019-06-01T00:30:28.987Z,14.73
2019-06-01T00:33:06.898Z,15.35
2019-06-01T00:35:45.478Z,13.55
2019-06-01T00:38:23.748Z,14.28
2019-06-01T00:41:01.416Z,14.38
2019-06-01T00:43:42.087Z,14.23
2019-06-01T00:46:19.879Z,14.87
2019-06-01T00:48:56.973Z,13.80
2019-06-01T00:51:34.644Z,13.50
2019-06-01T00:54:12.687Z,14.35
2019-06-01T00:56:49.981Z,13.20
2019-06-01T00:59:27.559Z,12.55
2019-06-01T01:02:04.945Z,13.45
2019-06-01T01:04:44.150Z,11.45
2019-06-01T01:07:21.534Z,7.05
2019-06-01T01:09:59.300Z,6.72
2019-06-01T01:12:39.268Z,5.67
2019-06-01T01:15:19.510Z,6.12
2019-06-01T01:17:57.144Z,5.45
2019-06-01T01:20:34.635Z,5.00
2019-06-01T01:23:12.648Z,4.97
2019-06-01T01:25:50.577Z,4.65
2019-06-01T01:28:29.218Z,4.20
2019-06-01T01:31:13.673Z,4.12
2019-06-01T01:33:45.588Z,5.00
2019-06-01T01:36:23.361Z,5.00
2019-06-01T01:39:00.427Z,5.22
2019-06-01T01:41:39.588Z,5.17
2019-06-01T01:44:16.762Z,4.78
2019-06-01T01:46:55.516Z,5.00
2019-06-01T01:49:32.955Z,4.53
2019-06-01T01:52:10.544Z,4.87
2019-06-01T01:54:47.656Z,4.62
2019-06-01T01:57:26.735Z,4.50
2019-06-01T02:00:03.971Z,4.20
2019-06-01T02:02:42.610Z,3.87
2019-06-01T02:05:20.322Z,3.72
2019-06-01T02:08:00.128Z,43.33
2019-06-01T02:10:37.860Z,4.47
2019-06-01T02:13:15.991Z,4.62
2019-06-01T02:15:54.118Z,4.25
2019-06-01T02:18:34.327Z,4.20
2019-06-01T02:21:11.508Z,4.30
2019-06-01T02:23:49.593Z,3.95
2019-06-01T02:26:27.308Z,3.92
2019-06-01T02:29:06.404Z,4.28
2019-06-01T02:31:43.829Z,4.30
2019-06-01T02:34:21.566Z,4.25
2019-06-01T02:37:00.204Z,4.42
2019-06-01T02:39:37.975Z,4.78
2019-06-01T02:42:16.118Z,4.40
2019-06-01T02:44:54.976Z,3.75
2019-06-01T02:47:33.757Z,4.25
2019-06-01T02:50:13.429Z,4.20
2019-06-01T02:52:50.840Z,4.40
2019-06-01T02:55:27.974Z,4.15
2019-06-01T02:58:06.705Z,4.20
2019-06-01T03:01:37.106Z,3.55
2019-06-01T03:04:15.043Z,4.17
2019-06-01T03:06:52.934Z,4.08
2019-06-01T03:09:30.536Z,4.60
2019-06-01T03:12:09.567Z,4.00
2019-06-01T03:14:48.216Z,4.72
2019-06-01T03:17:27.703Z,5.40
2019-06-01T03:20:07.897Z,5.00
2019-06-01T03:22:48.288Z,5.15
2019-06-01T03:25:25.909Z,4.92
2019-06-01T03:28:04.168Z,4.53
2019-06-01T03:30:46.309Z,4.75
2019-06-01T03:33:23.930Z,5.00
2019-06-01T03:36:02.821Z,5.15
2019-06-01T03:38:42.367Z,4.03
2019-06-01T03:41:20.066Z,3.90
2019-06-01T03:43:58.354Z,4.03
2019-06-01T03:46:36.484Z,3.90
2019-06-01T03:49:14.092Z,3.98
2019-06-01T03:51:51.547Z,4.25
2019-06-01T03:54:30.455Z,4.00
2019-06-01T03:57:09.102Z,4.62
2019-06-01T03:59:46.279Z,4.58
2019-06-01T04:02:32.748Z,4.22
2019-06-01T04:05:03.631Z,3.85
2019-06-01T04:07:40.985Z,4.15
2019-06-01T04:10:18.663Z,4.20
2019-06-01T04:12:55.651Z,4.37
2019-06-01T04:15:33.647Z,4.08
2019-06-01T04:18:13.892Z,4.33
2019-06-01T04:20:51.998Z,4.05
2019-06-01T04:23:29.774Z,4.10
2019-06-01T04:26:10.155Z,4.20
2019-06-01T04:28:47.539Z,4.58
2019-06-01T04:31:28.077Z,4.50
2019-06-01T04:34:06.801Z,5.97
2019-06-01T04:36:44.915Z,5.08
2019-06-01T04:39:22.598Z,4.90
2019-06-01T04:42:00.539Z,5.05
2019-06-01T04:44:38.956Z,5.20
2019-06-01T04:47:17.344Z,6.62
2019-06-01T04:49:55.357Z,6.97
2019-06-01T04:52:32.850Z,6.78
2019-06-01T04:55:11.095Z,8.05
2019-06-01T04:57:50.636Z,7.80
2019-06-01T05:00:28.233Z,8.63
2019-06-01T05:03:08.443Z,8.93
2019-06-01T05:05:44.657Z,8.98
2019-06-01T05:08:23.358Z,9.23
2019-06-01T05:11:05.041Z,9.65
2019-06-01T05:13:40.888Z,10.00
2019-06-01T05:16:18.905Z,9.78
2019-06-01T05:18:56.935Z,9.88
2019-06-01T05:21:34.265Z,12.47
2019-06-01T05:24:11.249Z,12.63
2019-06-01T05:26:49.230Z,12.20
2019-06-01T05:29:28.230Z,20.80
2019-06-01T05:32:06.153Z,11.20
2019-06-01T05:34:46.787Z,10.75
2019-06-01T05:37:24.313Z,10.72
2019-06-01T05:40:02.877Z,10.25
2019-06-01T05:42:40.281Z,9.70
2019-06-01T05:45:19.272Z,10.35
2019-06-01T05:47:57.443Z,9.88
2019-06-01T05:50:36.021Z,10.45
2019-06-01T05:53:16.787Z,10.13
2019-06-01T05:55:55.780Z,9.48
2019-06-01T05:58:32.860Z,9.23
2019-06-01T06:01:12.507Z,8.48
2019-06-01T06:03:49.533Z,7.25
2019-06-01T06:06:26.698Z,6.47
2019-06-01T06:09:04.361Z,5.90
2019-06-01T06:11:42.848Z,5.65
2019-06-01T06:14:22.262Z,4.97
2019-06-01T06:17:00.168Z,6.08
2019-06-01T06:19:37.480Z,5.08
2019-06-01T06:22:16.182Z,5.62
2019-06-01T06:24:53.273Z,4.83
2019-06-01T06:27:30.866Z,4.20
2019-06-01T06:30:08.472Z,4.62
2019-06-01T06:32:48.201Z,4.40
2019-06-01T06:35:25.671Z,5.47
2019-06-01T06:38:02.853Z,5.08
2019-06-01T06:40:40.170Z,4.83
2019-06-01T06:43:24.414Z,5.00
2019-06-01T06:45:57.995Z,5.37
2019-06-01T06:48:35.834Z,4.50
2019-06-01T06:51:13.204Z,4.47
2019-06-01T06:53:51.852Z,4.03
2019-06-01T06:56:29.885Z,4.85
2019-06-01T06:59:07.317Z,3.60
2019-06-01T07:01:44.782Z,3.83
2019-06-01T07:04:23.871Z,3.98
2019-06-01T07:07:01.396Z,3.62
2019-06-01T07:09:39.369Z,4.45
2019-06-01T07:12:16.087Z,4.08
2019-06-01T07:14:54.370Z,4.55
2019-06-01T07:17:31.862Z,4.08
2019-06-01T07:20:09.481Z,3.67
2019-06-01T07:22:46.508Z,3.52
2019-06-01T07:25:24.989Z,4.00
2019-06-01T07:28:02.286Z,4.33
2019-06-01T07:30:49.728Z,3.98
2019-06-01T07:33:20.461Z,2.95
2019-06-01T07:35:59.530Z,2.80
2019-06-01T07:38:36.362Z,3.10
2019-06-01T07:41:15.074Z,3.30
2019-06-01T07:43:52.386Z,2.90
2019-06-01T07:46:30.474Z,3.20
2019-06-01T07:49:10.334Z,3.10
2019-06-01T07:51:49.023Z,3.00
2019-06-01T07:54:26.377Z,3.83
2019-06-01T07:57:04.213Z,3.05
2019-06-01T07:59:42.135Z,4.25
2019-06-01T08:02:23.286Z,3.90
2019-06-01T08:04:58.022Z,3.55
2019-06-01T08:07:36.819Z,3.90
2019-06-01T08:10:14.125Z,4.40
2019-06-01T08:12:53.006Z,3.10
2019-06-01T08:15:31.864Z,4.30
2019-06-01T08:18:09.853Z,3.80
2019-06-01T08:20:47.191Z,5.60
2019-06-01T08:23:26.136Z,4.05
2019-06-01T08:26:03.618Z,4.20
2019-06-01T08:28:42.437Z,5.83
2019-06-01T08:31:19.809Z,4.53
2019-06-01T08:33:58.144Z,4.62
2019-06-01T08:36:35.753Z,4.78
2019-06-01T08:39:15.789Z,8.45
2019-06-01T08:41:52.975Z,4.80
2019-06-01T08:44:31.642Z,5.37
2019-06-01T08:47:09.403Z,4.72
2019-06-01T08:49:48.059Z,3.85
2019-06-01T08:52:28.041Z,3.83
2019-06-01T08:55:05.573Z,3.87
2019-06-01T08:57:43.181Z,2.87
2019-06-01T09:00:21.430Z,3.37
2019-06-01T09:02:58.705Z,4.78
2019-06-01T09:05:36.166Z,5.05
2019-06-01T09:08:13.704Z,4.72
2019-06-01T09:10:52.722Z,4.97
2019-06-01T09:13:31.190Z,4.45
2019-06-01T09:16:08.743Z,3.85
2019-06-01T09:18:46.000Z,4.05
2019-06-01T09:21:25.427Z,7.00
2019-06-01T09:24:02.690Z,4.85
2019-06-01T09:26:40.744Z,4.70
2019-06-01T09:29:17.891Z,4.30
2019-06-01T09:31:56.590Z,4.30
2019-06-01T09:34:34.560Z,3.40
2019-06-01T09:37:12.537Z,3.60
2019-06-01T09:39:50.175Z,4.12
2019-06-01T09:42:30.690Z,6.30
2019-06-01T09:45:08.705Z,5.22
2019-06-01T09:47:46.697Z,5.03
2019-06-01T09:50:24.080Z,7.08
2019-06-01T09:53:01.857Z,4.22
2019-06-01T09:55:39.287Z,5.37
2019-06-01T09:58:16.939Z,7.20
2019-06-01T10:00:54.038Z,5.58
2019-06-01T10:03:32.603Z,7.10
2019-06-01T10:06:14.019Z,4.70
2019-06-01T10:08:50.020Z,5.83
2019-06-01T10:11:27.434Z,5.90
2019-06-01T10:14:06.762Z,5.95
2019-06-01T10:16:44.017Z,6.40
2019-06-01T10:19:21.110Z,4.95
2019-06-01T10:21:58.755Z,4.90
2019-06-01T10:24:39.899Z,4.85
2019-06-01T10:27:16.983Z,6.87
2019-06-01T10:29:54.771Z,6.67
2019-06-01T10:32:34.135Z,4.85
2019-06-01T10:35:13.142Z,6.70
2019-06-01T10:37:51.381Z,5.67
2019-06-01T10:40:29.112Z,4.47
2019-06-01T10:43:06.595Z,4.62
2019-06-01T10:45:45.710Z,4.90
2019-06-01T10:48:23.117Z,5.10
2019-06-01T10:51:00.542Z,5.20
2019-06-01T10:53:38.261Z,6.62
2019-06-01T10:56:16.441Z,5.80
2019-06-01T10:59:00.069Z,5.83
2019-06-01T11:01:35.557Z,5.28
2019-06-01T11:04:12.403Z,5.33
2019-06-01T11:06:50.228Z,6.00
2019-06-01T11:09:27.181Z,5.67
2019-06-01T11:12:04.173Z,5.80
2019-06-01T11:14:41.526Z,5.62
2019-06-01T11:17:20.028Z,5.75
2019-06-01T11:19:57.106Z,5.25
2019-06-01T11:22:35.480Z,5.85
2019-06-01T11:25:13.550Z,4.72
2019-06-01T11:27:52.551Z,5.50
2019-06-01T11:30:30.011Z,4.65
2019-06-01T11:33:08.105Z,5.45
2019-06-01T11:35:45.840Z,5.28
2019-06-01T11:38:25.150Z,5.80
2019-06-01T11:41:02.761Z,5.08
2019-06-01T11:43:40.730Z,4.65
2019-06-01T11:46:19.014Z,4.92
2019-06-01T11:48:58.226Z,5.70
2019-06-01T11:51:36.885Z,4.75
2019-06-01T11:54:32.857Z,5.78
2019-06-01T11:57:09.995Z,4.97
2019-06-01T11:59:48.042Z,7.15
2019-06-01T12:02:25.640Z,5.30
2019-06-01T12:05:02.785Z,6.22
2019-06-01T12:07:40.454Z,5.50
2019-06-01T12:10:18.544Z,5.65
2019-06-01T12:12:55.949Z,5.25
2019-06-01T12:15:33.276Z,5.40
2019-06-01T12:18:10.581Z,5.10
2019-06-01T12:20:50.490Z,5.37
2019-06-01T12:23:27.986Z,9.18
2019-06-01T12:26:05.429Z,27.48
2019-06-01T12:28:43.788Z,7.28
2019-06-01T12:31:21.571Z,6.00
2019-06-01T12:33:59.175Z,5.15
2019-06-01T12:36:39.221Z,5.80
2019-06-01T12:39:17.255Z,5.58
2019-06-01T12:41:55.172Z,5.37
2019-06-01T12:44:32.385Z,5.37
2019-06-01T12:47:10.195Z,4.87
2019-06-01T12:49:48.270Z,4.90
2019-06-01T12:52:27.959Z,6.05
2019-06-01T12:55:05.248Z,5.45
2019-06-01T12:57:42.953Z,5.50
2019-06-01T13:00:20.613Z,5.55
2019-06-01T13:03:07.106Z,5.40
2019-06-01T13:05:38.856Z,6.95
2019-06-01T13:08:17.321Z,5.30
2019-06-01T13:10:54.931Z,6.03
2019-06-01T13:13:33.241Z,6.60
2019-06-01T13:16:10.967Z,6.65
2019-06-01T13:18:47.834Z,6.33
2019-06-01T13:21:27.629Z,6.80
2019-06-01T13:24:05.849Z,6.67
2019-06-01T13:26:43.720Z,6.15
2019-06-01T13:29:21.295Z,8.10
2019-06-01T13:31:58.627Z,8.85
2019-06-01T13:34:37.068Z,11.10
2019-06-01T13:37:14.987Z,10.95
2019-06-01T13:39:57.644Z,10.28
2019-06-01T13:42:31.220Z,10.25
2019-06-01T13:45:09.146Z,9.83
2019-06-01T13:47:47.673Z,9.28
2019-06-01T13:50:24.751Z,9.25
2019-06-01T13:53:02.327Z,8.80
2019-06-01T13:55:42.032Z,8.33
2019-06-01T13:58:19.673Z,8.35
2019-06-01T14:00:57.048Z,9.00
2019-06-01T14:03:34.608Z,9.00
2019-06-01T14:06:13.614Z,8.15
2019-06-01T14:08:51.333Z,7.60
2019-06-01T14:11:28.693Z,7.17
2019-06-01T14:14:06.041Z,6.47
2019-06-01T14:16:43.777Z,6.40
2019-06-01T14:19:21.086Z,7.30
2019-06-01T14:21:59.138Z,6.87
2019-06-01T14:24:42.680Z,6.12
2019-06-01T14:27:17.566Z,6.37
2019-06-01T14:29:54.559Z,7.00
2019-06-01T14:32:31.916Z,6.80
2019-06-01T14:35:10.055Z,6.40
2019-06-01T14:37:48.729Z,6.92
2019-06-01T14:40:26.404Z,7.25
2019-06-01T14:43:03.669Z,7.90
2019-06-01T14:45:41.949Z,8.38
2019-06-01T14:48:20.216Z,8.68
2019-06-01T14:50:57.902Z,9.80
2019-06-01T14:53:35.631Z,9.20
2019-06-01T14:56:12.683Z,9.75
2019-06-01T14:58:51.942Z,8.78
2019-06-01T15:01:32.857Z,8.70
2019-06-01T15:04:08.296Z,7.45
2019-06-01T15:06:45.390Z,6.47
2019-06-01T15:09:23.817Z,6.95
2019-06-01T15:12:00.981Z,7.25
2019-06-01T15:14:39.338Z,7.12
2019-06-01T15:17:16.762Z,6.95
2019-06-01T15:19:56.171Z,8.35
2019-06-01T15:22:34.012Z,8.33
2019-06-01T15:25:11.225Z,7.30
2019-06-01T15:27:50.534Z,7.47
2019-06-01T15:30:29.891Z,6.78
2019-06-01T15:33:07.540Z,6.50
2019-06-01T15:35:45.131Z,6.00
2019-06-01T15:38:23.138Z,6.37
2019-06-01T15:41:00.883Z,5.92
2019-06-01T15:43:39.305Z,6.40
2019-06-01T15:46:16.726Z,5.70
2019-06-01T15:48:53.713Z,5.97
2019-06-01T15:51:31.695Z,6.03
2019-06-01T15:54:09.642Z,5.87
2019-06-01T15:56:47.300Z,6.00
2019-06-01T15:59:24.885Z,5.90
2019-06-01T16:02:04.103Z,5.78
2019-06-01T16:04:41.620Z,6.12
2019-06-01T16:07:19.123Z,8.18
2019-06-01T16:09:57.397Z,7.58
2019-06-01T16:12:35.527Z,7.40
2019-06-01T16:15:12.781Z,5.97
2019-06-01T16:17:50.479Z,9.28
2019-06-01T16:20:28.066Z,8.30
2019-06-01T16:23:05.963Z,8.18
2019-06-01T16:25:53.071Z,5.70
2019-06-01T16:28:24.525Z,5.40
2019-06-01T16:31:03.002Z,6.35
2019-06-01T16:33:42.444Z,4.97
2019-06-01T16:36:19.983Z,5.60
2019-06-01T16:39:03.088Z,5.03
2019-06-01T16:41:38.274Z,4.62
2019-06-01T16:44:20.032Z,5.42
2019-06-01T16:46:57.700Z,4.78
2019-06-01T16:49:34.966Z,4.83
2019-06-01T16:52:12.095Z,5.15
2019-06-01T16:54:49.825Z,4.90
2019-06-01T16:57:27.299Z,4.75
2019-06-01T17:00:05.037Z,4.60
2019-06-01T17:02:42.896Z,4.62
2019-06-01T17:05:22.459Z,4.10
2019-06-01T17:08:00.808Z,4.20
2019-06-01T17:10:38.215Z,4.55
2019-06-01T17:13:33.479Z,4.53
2019-06-01T17:16:11.617Z,4.90
2019-06-01T17:18:49.082Z,5.97
2019-06-01T17:21:26.693Z,8.85
2019-06-01T17:24:04.197Z,8.00
2019-06-01T17:26:42.791Z,8.90
2019-06-01T17:29:20.029Z,8.65
2019-06-01T17:32:15.742Z,7.53
2019-06-01T17:34:36.539Z,6.85
2019-06-01T17:37:15.314Z,7.58
2019-06-01T17:39:53.362Z,8.68
2019-06-01T17:42:30.412Z,7.33
2019-06-01T17:45:09.456Z,7.80
2019-06-01T17:47:47.670Z,6.90
2019-06-01T17:50:26.013Z,6.45
2019-06-01T17:53:04.713Z,6.75
2019-06-01T17:55:43.108Z,6.05
2019-06-01T17:58:21.749Z,5.30
2019-06-01T18:00:59.250Z,5.50
2019-06-01T18:03:36.614Z,6.15
2019-06-01T18:06:13.789Z,5.87
2019-06-01T18:08:52.901Z,5.83
2019-06-01T18:11:30.189Z,6.53
2019-06-01T18:14:08.579Z,5.80
2019-06-01T18:16:46.326Z,6.45
2019-06-01T18:19:24.392Z,7.20
2019-06-01T18:22:02.570Z,10.03
2019-06-01T18:24:40.412Z,15.05
2019-06-01T18:27:17.372Z,9.53
2019-06-01T18:29:56.244Z,8.20
2019-06-01T18:32:33.917Z,9.38
2019-06-01T18:35:11.418Z,8.68
2019-06-01T18:37:49.415Z,10.03
2019-06-01T18:40:28.941Z,10.43
2019-06-01T18:43:09.971Z,11.20
2019-06-01T18:45:48.256Z,8.73
2019-06-01T18:48:25.757Z,10.13
2019-06-01T18:51:04.094Z,10.85
2019-06-01T18:53:42.208Z,11.22
2019-06-01T18:56:19.891Z,10.50
2019-06-01T18:58:56.980Z,11.97
2019-06-01T19:01:35.549Z,11.18
2019-06-01T19:04:13.735Z,10.28
2019-06-01T19:06:51.129Z,10.53
2019-06-01T19:09:28.611Z,9.00
2019-06-01T19:12:08.940Z,8.68
2019-06-01T19:14:46.290Z,8.48
2019-06-01T19:17:24.105Z,6.28
2019-06-01T19:20:01.469Z,5.37
2019-06-01T19:22:40.075Z,5.58
2019-06-01T19:25:18.057Z,4.50
2019-06-01T19:27:55.864Z,5.33
2019-06-01T19:30:46.892Z,5.25
2019-06-01T19:33:25.168Z,5.37
2019-06-01T19:36:03.117Z,4.97
2019-06-01T19:38:41.929Z,5.25
2019-06-01T19:41:19.927Z,5.53
2019-06-01T19:43:58.486Z,4.97
2019-06-01T19:46:35.763Z,5.40
2019-06-01T19:49:14.996Z,5.75
2019-06-01T19:51:52.532Z,4.78
2019-06-01T19:54:30.969Z,4.60
2019-06-01T19:57:09.716Z,5.08
2019-06-01T19:59:47.398Z,4.78
2019-06-01T20:02:33.346Z,5.62
2019-06-01T20:05:03.768Z,5.40
2019-06-01T20:07:40.916Z,5.67
2019-06-01T20:10:19.740Z,5.28
2019-06-01T20:12:57.185Z,5.25
2019-06-01T20:15:35.606Z,5.85
2019-06-01T20:18:13.024Z,5.72
2019-06-01T20:20:50.484Z,5.83
2019-06-01T20:23:27.908Z,5.92
2019-06-01T20:26:06.053Z,6.60
2019-06-01T20:28:43.433Z,6.20
2019-06-01T20:31:22.054Z,7.70
2019-06-01T20:33:59.932Z,7.50
2019-06-01T20:36:38.867Z,8.18
2019-06-01T20:39:16.264Z,8.20
2019-06-01T20:41:54.671Z,8.05
2019-06-01T20:44:32.099Z,7.60
2019-06-01T20:47:12.485Z,7.58
2019-06-01T20:49:50.266Z,8.30
2019-06-01T20:52:27.406Z,7.05
2019-06-01T20:55:04.904Z,7.00
2019-06-01T20:57:42.806Z,4.90
2019-06-01T21:00:21.695Z,3.83
2019-06-01T21:02:59.051Z,2.52
2019-06-01T21:05:36.413Z,2.52
2019-06-01T21:08:14.194Z,2.20
2019-06-01T21:10:51.798Z,1.80
2019-06-01T21:13:29.436Z,1.70
2019-06-01T21:16:06.634Z,2.00
2019-06-01T21:18:47.897Z,1.80
2019-06-01T21:21:25.006Z,1.70
2019-06-01T21:24:02.479Z,1.57
2019-06-01T21:26:39.746Z,1.70
2019-06-01T21:29:18.743Z,1.85
2019-06-01T21:31:56.439Z,1.40
2019-06-01T21:34:33.690Z,1.42
2019-06-01T21:37:11.509Z,1.45
2019-06-01T21:39:50.248Z,2.02
2019-06-01T21:42:28.101Z,1.70
2019-06-01T21:45:06.034Z,2.08
2019-06-01T21:47:43.868Z,1.92
2019-06-01T21:50:23.994Z,1.80
2019-06-01T21:53:01.434Z,8.78
2019-06-01T21:55:39.165Z,1.80
2019-06-01T21:58:16.687Z,1.77
2019-06-01T22:00:54.499Z,1.75
2019-06-01T22:03:32.000Z,1.50
2019-06-01T22:06:09.471Z,1.20
2019-06-01T22:08:52.795Z,1.57
2019-06-01T22:11:27.587Z,1.47
2019-06-01T22:14:04.880Z,1.20
2019-06-01T22:16:42.209Z,1.60
2019-06-01T22:19:22.074Z,1.40
2019-06-01T22:22:01.630Z,1.22
2019-06-01T22:24:38.802Z,1.70
2019-06-01T22:27:15.989Z,2.08
2019-06-01T22:29:53.498Z,2.00
2019-06-01T22:32:31.790Z,2.15
2019-06-01T22:35:10.814Z,2.10
2019-06-01T22:37:48.722Z,3.50
2019-06-01T22:40:27.286Z,4.45
2019-06-01T22:43:05.713Z,3.30
2019-06-01T22:45:42.871Z,3.27
2019-06-01T22:48:21.010Z,3.20
2019-06-01T22:50:58.959Z,2.70
2019-06-01T22:53:37.687Z,2.90
2019-06-01T22:56:14.867Z,3.50
2019-06-01T22:58:53.597Z,3.42
2019-06-01T23:01:31.158Z,3.67
2019-06-01T23:04:09.535Z,3.40
2019-06-01T23:06:46.878Z,3.10
2019-06-01T23:09:25.592Z,3.55
2019-06-01T23:12:02.667Z,3.50
2019-06-01T23:14:40.861Z,3.27
2019-06-01T23:17:18.068Z,2.80
2019-06-01T23:19:55.964Z,2.40
2019-06-01T23:22:33.597Z,3.33
2019-06-01T23:25:12.737Z,3.22
2019-06-01T23:27:50.020Z,3.90
2019-06-01T23:30:28.280Z,2.80
2019-06-01T23:33:05.782Z,2.35
2019-06-01T23:35:44.050Z,2.77
2019-06-01T23:38:22.531Z,4.25
2019-06-01T23:40:59.991Z,5.10
2019-06-01T23:43:38.677Z,5.22
2019-06-01T23:46:16.615Z,4.30
2019-06-01T23:48:53.959Z,4.17
2019-06-01T23:51:32.046Z,3.55
2019-06-01T23:54:09.348Z,3.17
2019-06-01T23:56:48.989Z,3.25
2019-06-01T23:59:27.966Z,3.83
